Viracopos International Airport
SBKP : now visible

Airfield :











YOU CAN JOIN US ON...

 
LOGIN :

Register | Disclaimer

   EN    FR    IT 

 









Legend :    VFR   Marginal VFR   IFR   Intensive IFR   Very Intensive IFR
Visi :
Ceiling :
>= 8 km
>= 3000ft
5 to 8 km
1000 to 3000 ft
1500m to 5 km
500 to 1000 ft
800 to 1500m
200 to 500 ft
< 800m
< 200 ft
Symbols :   Thunderstorms  Fog  Heavy snow  Heavy precipitations  Wind > 20 kt






- Airport Elevation : 2170 ft
- IATA code : VCP


SBKP - Viracopos International

CURRENT METAR :
  • 190900Z 10005KT 4000 HZ NSC 19/14 Q1014

EXPIRED METARs :
  • 190800Z 11007KT 6000 NSC 20/14 Q1013
  • 190700Z 14003KT 6000 NSC 20/14 Q1013

TAF TAF SBKP
Valid from the 19 at 06:00 until the 20 at 06:00 UTC


190230Z 1906/2006 12008KT 8000 NSC TN20/1909Z TX33/1917Z
BECMG 1911/1913 03007KT
BECMG 1913/1915 33007KT FEW030
TEMPO 1916/1920 27007KT 8000 SHRA SCT035 FEW040TCU
BECMG 1921/1923 12008KT CAVOK
BECMG 2000/2002 17012KT BKN020 RMK PGL
SBBS FIR / South America



MET'MAP, your aeronautical weather chart ! - Copyright ORBIFLY December 2007 - Disclaimer

ORBIFLY MET'MAP TEAM :

Programming & Development : Alexandra Zaïnal
Concept & original design : Baudouin d'Aumeries
Assistance for programming : Marc-Olivier Méhu
Technical & hardware support : Manuel Goepfert

Contact : metmap@orbifly.com




SOURCES & CREDITS :

   NOAA       Earth
Advisory